ADDS METAR Data INFO
IDs: Format: Raw Decoded Include TAF

Data at: 0310 UTC 20 Jul 2018

KCHO 200253Z 00000KT 10SM CLR 21/18 A3010 RMK AO2 SLP184 T02110178 53014
KCHO 200153Z 00000KT 10SM CLR 23/18 A3008 RMK AO2 SLP179 T02280178
KCHO 200053Z 00000KT 10SM CLR 25/17 A3006 RMK AO2 SLP173 T02500172
KCHO 192353Z 14004KT 10SM CLR 27/16 A3005 RMK AO2 SLP170 T02720161 10306 20272 56004
KCHO 192253Z 14005KT 10SM CLR 28/16 A3005 RMK AO2 SLP171 T02830156
KCHO 192153Z 10005KT 10SM CLR 29/15 A3005 RMK AO2 SLP170 T02890150
KCHO 192053Z 00000KT 10SM SCT055 30/16 A3007 RMK AO2 SLP174 T03000156 58011
KCHO 191953Z 18005KT 10SM SCT065 BKN075 29/16 A3008 RMK AO2 SLP180 T02940156
KCHO 191853Z 13004KT 10SM SCT060 29/15 A3009 RMK AO2 SLP182 T02890150
KCHO 191753Z 09004KT 10SM FEW060 29/14 A3010 RMK AO2 SLP185 T02890144 10300 20194 58007
KCHO 191653Z 12006KT 10SM FEW042 29/17 A3011 RMK AO2 SLP190 T02890167
KCHO 191553Z 03004KT 10SM CLR 27/17 A3013 RMK AO2 SLP195 T02720167
KCHO 191453Z 04005KT 10SM CLR 26/16 A3012 RMK AO2 SLP193 T02610161 51009
KCHO 191353Z 06008KT 10SM CLR 25/16 A3012 RMK AO2 SLP191 T02500156
KCHO 191253Z 00000KT 10SM CLR 22/15 A3011 RMK AO2 SLP190 T02220150
KCHO 191153Z 00000KT 10SM CLR 19/15 A3009 RMK AO2 SLP183 T01940150 10194 20156 53014
KCHO 191053Z 00000KT 10SM CLR 16/14 A3008 RMK AO2 SLP179 T01610139
KCHO 190953Z 00000KT 10SM CLR 16/14 A3007 RMK AO2 SLP174 T01610139
KCHO 190853Z AUTO 30003KT 10SM CLR 16/14 A3005 RMK AO2 SLP170 T01610139 58001
KCHO 190753Z AUTO 00000KT 10SM CLR 16/14 A3006 RMK AO2 SLP171 T01610139
KCHO 190653Z AUTO 26003KT 10SM CLR 19/14 A3006 RMK AO2 SLP172 T01890144
KCHO 190553Z AUTO 00000KT 10SM CLR 18/15 A3006 RMK AO2 SLP171 T01780150 10267 20172 53012
KCHO 190453Z AUTO 00000KT 10SM CLR 18/15 A3005 RMK AO2 SLP167 T01780150 403000178
KCHO 190353Z AUTO 20004KT 10SM CLR 19/15 A3003 RMK AO2 SLP162 T01940150
KCHO 190253Z 00000KT 10SM CLR 20/16 A3002 RMK AO2 SLP159 T02000156 51013
KCHO 190153Z 35003KT 10SM CLR 22/15 A3001 RMK AO2 SLP156 T02220150
KCHO 190053Z 00000KT 10SM CLR 24/15 A3000 RMK AO2 SLP151 T02390150
KCHO 182353Z 06004KT 10SM CLR 27/14 A2998 RMK AO2 SLP146 T02670144 10300 20267 53001
KCHO 182253Z 36004KT 10SM CLR 28/13 A2998 RMK AO2 SLP144 T02830133
KCHO 182153Z 02005KT 10SM CLR 29/13 A2998 RMK AO2 SLP144 T02940128
KCHO 182053Z 34006KT 10SM SCT060 30/13 A2998 RMK AO2 SLP144 T03000133 56007
KCHO 181953Z VRB06KT 10SM SCT065 29/13 A2998 RMK AO2 SLP145 T02940133
KCHO 181853Z 04006KT 10SM OVC065 29/13 A2999 RMK AO2 SLP148 T02890133
KCHO 181753Z VRB04KT 10SM CLR 28/12 A3000 RMK AO2 SLP151 T02830122 10294 20217 56008
KCHO 181653Z VRB03KT 10SM CLR 28/12 A3001 RMK AO2 SLP153 T02780117
KCHO 181553Z 00000KT 10SM CLR 27/13 A3002 RMK AO2 SLP156 T02720133